Monroe, LA (71203)

12:45 AM CDT on September 25, 2016 (GMT -0500)
Swartz | | Change Station

Elev 98 ft 32.56 °N, 92.02 °W | Updated 9 seconds ago

Clear
Clear
74.1 °F
Feels Like 72 °F
N
0.0
Wind Variable Wind from NW
Gusts 0.0 mph

Today
High -- | Low -- °F
--% Chance of Precip.
Yesterday
High -- | Low -- °F
Precip. -- in
Pressure 30.01 in
Visibility 10.0 miles
Clouds Clear
Heat Index 72 °F
Dew Point 72 °F
Humidity 94%
Rainfall 0.00 in
Snow Depth Not available.
6:58 AM 7:00 PM
Waning Crescent, 31% visible
METAR KMLU 250453Z AUTO 00000KT 10SM CLR 23/22 A3001 RMK AO2 SLP162 T02280222
Pressure 30.01 in
Visibility 10.0 miles
Clouds Clear
Heat Index 72 °F
Dew Point 72 °F
Humidity 94%
Rainfall 0.00 in
Snow Depth Not available.
6:58 AM 7:00 PM
Waning Crescent, 31% visible
METAR KMLU 250453Z AUTO 00000KT 10SM CLR 23/22 A3001 RMK AO2 SLP162 T02280222

10-Day Weather Forecast

Almanac

Astronomy

Sep. 25, 2016 Rise Set
Actual Time
Civil Twilight
Nautical Twilight
Astronomical Twilight
Moon
Length of Visible Light
Length of Day
Tomorrow will be .
, % of the Moon is Illuminated

Today's Extremes

State Highs State Lows

Community

WunderPhotos

Upload Photos

1,941,554 photos uploaded!

WunderBlog® & News

Nearby

Air Quality

  Air Quality AQ Index Pollutant
Not available.

Snow Depth

Station Depth Elevation

Earthquake Activity

City Distance Mag. Time & Date
Minimum magnitude displayed is 2.5.

Coastal Water Temperatures

Place Temperature

Stations

Nearby Weather Stations

Station Location Temp. Windchill Dew Point Humidity Wind Precip. Elev Updated Type
                   

Watches & Warnings

There are currently no watches in effect.